createdAt,value
2023-01-05T00:01:27.705Z,3.70
2023-01-05T00:03:55.018Z,5.47
2023-01-05T00:06:22.269Z,4.17
2023-01-05T00:08:49.626Z,4.03
2023-01-05T00:11:43.179Z,4.47
2023-01-05T00:14:33.874Z,4.07
2023-01-05T00:17:20.036Z,3.40
2023-01-05T00:20:05.856Z,3.43
2023-01-05T00:22:34.883Z,3.07
2023-01-05T00:25:11.553Z,2.90
2023-01-05T00:27:40.046Z,4.10
2023-01-05T00:30:08.147Z,3.57
2023-01-05T00:32:35.411Z,4.23
2023-01-05T00:35:03.006Z,4.57
2023-01-05T00:37:34.508Z,4.63
2023-01-05T00:40:01.775Z,3.73
2023-01-05T00:42:29.107Z,4.30
2023-01-05T00:44:56.525Z,5.00
2023-01-05T00:47:26.213Z,3.63
2023-01-05T00:49:53.896Z,2.50
2023-01-05T00:52:21.273Z,4.97
2023-01-05T00:54:49.410Z,3.77
2023-01-05T00:57:17.456Z,4.80
2023-01-05T00:59:44.828Z,3.37
2023-01-05T01:02:12.329Z,4.07
2023-01-05T01:04:39.671Z,4.20
2023-01-05T01:07:07.033Z,4.97
2023-01-05T01:09:34.837Z,5.03
2023-01-05T01:12:02.589Z,5.50
2023-01-05T01:14:29.957Z,2.73
2023-01-05T01:16:57.321Z,5.07
2023-01-05T01:19:25.769Z,4.83
2023-01-05T01:21:53.341Z,3.00
2023-01-05T01:24:22.193Z,3.60
2023-01-05T01:26:49.756Z,4.00
2023-01-05T01:29:17.405Z,3.37
2023-01-05T01:31:45.929Z,4.63
2023-01-05T01:34:13.146Z,5.17
2023-01-05T01:36:41.687Z,3.53
2023-01-05T01:39:09.439Z,2.70
2023-01-05T01:41:38.951Z,4.77
2023-01-05T01:44:25.437Z,4.27
2023-01-05T01:46:52.732Z,4.50
2023-01-05T01:49:19.963Z,3.57
2023-01-05T01:51:48.667Z,4.23
2023-01-05T01:54:17.923Z,5.37
2023-01-05T01:56:51.544Z,3.40
2023-01-05T01:59:19.330Z,5.07
2023-01-05T02:01:48.963Z,5.47
2023-01-05T02:04:16.409Z,4.90
2023-01-05T02:06:43.695Z,4.70
2023-01-05T02:09:11.286Z,4.90
2023-01-05T02:11:38.813Z,3.63
2023-01-05T02:14:33.555Z,5.53
2023-01-05T02:17:12.230Z,4.23
2023-01-05T02:19:39.466Z,2.97
2023-01-05T02:22:12.791Z,4.03
2023-01-05T02:24:52.267Z,3.70
2023-01-05T02:27:38.804Z,2.33
2023-01-05T02:30:06.129Z,4.97
2023-01-05T02:32:42.455Z,5.17
2023-01-05T02:35:32.964Z,4.53
2023-01-05T02:38:05.743Z,3.43
2023-01-05T02:40:35.400Z,3.83
2023-01-05T02:43:04.788Z,4.07
2023-01-05T02:45:32.031Z,3.77
2023-01-05T02:48:00.975Z,4.30
2023-01-05T02:50:31.103Z,3.17
2023-01-05T02:53:04.534Z,3.43
2023-01-05T02:55:51.687Z,4.00
2023-01-05T02:58:22.580Z,3.43
2023-01-05T03:01:01.721Z,3.80
2023-01-05T03:03:38.092Z,4.27
2023-01-05T03:07:46.101Z,4.73
2023-01-05T03:10:33.664Z,5.90
2023-01-05T03:13:23.910Z,4.70
2023-01-05T03:15:52.154Z,5.77
2023-01-05T03:18:20.998Z,6.33
2023-01-05T03:20:52.612Z,4.53
2023-01-05T03:23:39.692Z,5.57
2023-01-05T03:26:29.683Z,4.87
2023-01-05T03:29:18.687Z,4.13
2023-01-05T03:32:20.157Z,3.17
2023-01-05T03:35:24.215Z,3.20
2023-01-05T03:37:54.538Z,4.30
2023-01-05T03:40:25.678Z,2.93
2023-01-05T03:42:55.043Z,4.27
2023-01-05T03:45:24.303Z,3.37
2023-01-05T03:47:53.289Z,4.27
2023-01-05T03:50:25.488Z,3.97
2023-01-05T03:52:52.913Z,3.60
2023-01-05T03:55:20.261Z,3.37
2023-01-05T03:57:51.579Z,5.57
2023-01-05T04:00:20.548Z,3.97
2023-01-05T04:02:55.443Z,4.33
2023-01-05T04:05:23.390Z,3.00
2023-01-05T04:07:59.750Z,4.50
2023-01-05T04:10:28.632Z,2.90
2023-01-05T04:12:57.282Z,3.77
2023-01-05T04:15:25.568Z,4.47
2023-01-05T04:17:54.786Z,3.73
2023-01-05T04:20:22.101Z,3.37
2023-01-05T04:22:50.881Z,3.53
2023-01-05T04:25:20.911Z,3.73
2023-01-05T04:27:48.804Z,3.67
2023-01-05T04:30:17.787Z,6.43
2023-01-05T04:32:45.406Z,3.57
2023-01-05T04:35:15.912Z,3.53
2023-01-05T04:37:46.179Z,4.40
2023-01-05T04:40:14.077Z,5.17
2023-01-05T04:42:50.064Z,4.97
2023-01-05T04:45:17.700Z,3.73
2023-01-05T04:47:45.799Z,4.43
2023-01-05T04:50:17.314Z,7.77
2023-01-05T04:52:45.356Z,4.83
2023-01-05T04:55:13.229Z,4.70
2023-01-05T04:57:41.605Z,4.43
2023-01-05T05:00:12.826Z,4.30
2023-01-05T05:02:40.377Z,3.73
2023-01-05T05:05:10.335Z,4.93
2023-01-05T05:07:39.582Z,4.23
2023-01-05T05:10:09.183Z,6.63
2023-01-05T05:12:36.955Z,5.13
2023-01-05T05:15:06.787Z,4.13
2023-01-05T05:17:35.662Z,6.77
2023-01-05T05:20:03.440Z,3.73
2023-01-05T05:22:31.176Z,4.50
2023-01-05T05:25:00.693Z,5.47
2023-01-05T05:27:28.024Z,4.60
2023-01-05T05:29:55.322Z,5.53
2023-01-05T05:32:22.696Z,5.37
2023-01-05T05:34:49.999Z,5.30
2023-01-05T05:37:17.351Z,4.67
2023-01-05T05:39:44.825Z,5.50
2023-01-05T05:42:12.241Z,6.00
2023-01-05T05:44:39.842Z,4.97
2023-01-05T05:47:07.266Z,4.63
2023-01-05T05:49:34.692Z,4.47
2023-01-05T05:52:02.053Z,5.27
2023-01-05T05:54:29.392Z,4.97
2023-01-05T05:56:56.705Z,6.17
2023-01-05T05:59:24.029Z,5.57
2023-01-05T06:01:52.611Z,5.50
2023-01-05T06:04:20.167Z,3.63
2023-01-05T06:06:47.447Z,4.20
2023-01-05T06:09:14.890Z,5.00
2023-01-05T06:11:42.309Z,3.40
2023-01-05T06:14:09.863Z,4.83
2023-01-05T06:16:37.212Z,4.37
2023-01-05T06:19:04.613Z,3.87
2023-01-05T06:21:31.979Z,5.57
2023-01-05T06:23:59.343Z,4.43
2023-01-05T06:26:26.712Z,4.27
2023-01-05T06:28:54.096Z,5.57
2023-01-05T06:31:21.608Z,5.07
2023-01-05T06:33:49.233Z,3.93
2023-01-05T06:36:16.879Z,3.77
2023-01-05T06:38:44.584Z,4.17
2023-01-05T06:41:11.928Z,5.50
2023-01-05T06:43:39.351Z,5.57
2023-01-05T06:46:06.654Z,4.00
2023-01-05T06:48:34.077Z,3.30
2023-01-05T06:51:01.392Z,4.87
2023-01-05T06:53:28.807Z,5.67
2023-01-05T06:55:56.104Z,4.57
2023-01-05T06:58:23.443Z,5.53
2023-01-05T07:00:50.968Z,4.83
2023-01-05T07:03:18.340Z,3.67
2023-01-05T07:05:45.692Z,6.10
2023-01-05T07:08:13.042Z,6.03
2023-01-05T07:10:40.506Z,5.43
2023-01-05T07:13:07.845Z,5.93
2023-01-05T07:15:35.129Z,6.20
2023-01-05T07:18:02.479Z,4.73
2023-01-05T07:20:29.828Z,3.93
2023-01-05T07:22:57.185Z,5.33
2023-01-05T07:25:24.939Z,6.73
2023-01-05T07:27:52.721Z,4.83
2023-01-05T07:30:20.108Z,4.97
2023-01-05T07:32:47.614Z,3.80
2023-01-05T07:35:15.041Z,4.00
2023-01-05T07:37:44.383Z,3.87
2023-01-05T07:40:12.026Z,4.60
2023-01-05T07:42:39.389Z,2.43
2023-01-05T07:45:09.760Z,3.33
2023-01-05T07:47:39.871Z,3.55
2023-01-05T07:50:07.682Z,3.93
2023-01-05T07:52:35.064Z,3.83
2023-01-05T07:55:02.427Z,3.07
2023-01-05T07:57:29.734Z,4.20
2023-01-05T07:59:57.047Z,3.80
2023-01-05T08:02:24.617Z,4.07
2023-01-05T08:04:51.987Z,6.27
2023-01-05T08:07:19.303Z,5.70
2023-01-05T08:10:05.247Z,5.20
2023-01-05T08:12:32.700Z,3.57
2023-01-05T08:15:00.061Z,5.47
2023-01-05T08:17:27.360Z,3.63
2023-01-05T08:19:54.691Z,4.67
2023-01-05T08:22:21.996Z,3.10
2023-01-05T08:24:49.446Z,4.20
2023-01-05T08:27:16.806Z,4.07
2023-01-05T08:29:44.155Z,4.00
2023-01-05T08:32:11.544Z,3.27
2023-01-05T08:34:38.950Z,4.80
2023-01-05T08:37:06.266Z,4.50
2023-01-05T08:39:35.895Z,4.23
2023-01-05T08:42:03.225Z,5.37
2023-01-05T08:44:30.590Z,3.90
2023-01-05T08:46:57.927Z,4.27
2023-01-05T08:49:25.249Z,4.73
2023-01-05T08:51:52.599Z,3.83
2023-01-05T08:54:19.925Z,3.43
2023-01-05T08:56:50.479Z,3.23
2023-01-05T08:59:17.848Z,4.00
2023-01-05T09:01:45.491Z,3.30
2023-01-05T09:04:13.027Z,3.93
2023-01-05T09:06:41.340Z,4.50
2023-01-05T09:09:08.884Z,4.00
2023-01-05T09:11:36.240Z,4.93
2023-01-05T09:14:03.793Z,4.20
2023-01-05T09:19:20.350Z,3.73
2023-01-05T09:21:47.990Z,6.90
2023-01-05T09:24:15.477Z,4.27
2023-01-05T09:26:43.312Z,4.77
2023-01-05T09:29:11.327Z,5.30
2023-01-05T09:31:38.919Z,3.10
2023-01-05T09:34:06.305Z,4.57
2023-01-05T09:36:33.582Z,3.67
2023-01-05T09:39:01.294Z,5.10
2023-01-05T09:41:33.975Z,3.07
2023-01-05T09:44:03.628Z,5.13
2023-01-05T09:46:33.412Z,4.73
2023-01-05T09:49:02.089Z,4.33
2023-01-05T09:51:30.241Z,3.70
2023-01-05T09:53:58.797Z,4.33
2023-01-05T09:59:29.896Z,4.50
2023-01-05T10:01:59.877Z,2.80
2023-01-05T10:04:30.911Z,5.73
2023-01-05T10:07:03.448Z,3.87
2023-01-05T10:09:33.190Z,5.57
2023-01-05T10:12:24.224Z,4.07
2023-01-05T10:14:54.849Z,4.53
2023-01-05T10:20:42.815Z,3.13
2023-01-05T10:23:22.907Z,5.83
2023-01-05T10:25:56.159Z,4.13
2023-01-05T10:28:49.800Z,5.47
2023-01-05T10:31:24.075Z,4.43
2023-01-05T10:34:05.208Z,3.23
2023-01-05T10:39:26.340Z,3.57
2023-01-05T10:42:06.510Z,3.17
2023-01-05T10:44:46.140Z,4.03
2023-01-05T10:47:13.919Z,4.67
2023-01-05T10:49:42.730Z,3.60
2023-01-05T10:52:15.448Z,3.93
2023-01-05T10:54:45.620Z,5.40
2023-01-05T10:57:35.364Z,4.93
2023-01-05T11:00:09.228Z,4.97
2023-01-05T11:02:38.495Z,4.17
2023-01-05T11:05:05.963Z,5.43
2023-01-05T11:07:33.795Z,4.40
2023-01-05T11:10:01.781Z,6.93
2023-01-05T11:12:29.096Z,5.13
2023-01-05T11:14:58.931Z,5.67
2023-01-05T11:17:28.055Z,6.07
2023-01-05T11:19:56.516Z,5.40
2023-01-05T11:22:30.900Z,7.10
2023-01-05T11:25:13.753Z,6.50
2023-01-05T11:27:41.216Z,5.90
2023-01-05T11:30:17.765Z,6.73
2023-01-05T11:32:45.643Z,6.90
2023-01-05T11:35:19.039Z,6.97
2023-01-05T11:37:46.641Z,8.40
2023-01-05T11:40:18.063Z,6.80
2023-01-05T11:42:45.648Z,6.30
2023-01-05T11:45:20.641Z,7.60
2023-01-05T11:47:49.501Z,5.03
2023-01-05T11:50:35.749Z,4.97
2023-01-05T11:53:03.416Z,2.73
2023-01-05T11:55:38.259Z,3.33
2023-01-05T11:58:13.883Z,4.10
2023-01-05T12:00:52.010Z,3.17
2023-01-05T12:03:30.404Z,3.97
2023-01-05T12:05:59.104Z,4.37
2023-01-05T12:08:37.121Z,4.33
2023-01-05T12:11:17.943Z,4.90
2023-01-05T12:13:54.464Z,3.50
2023-01-05T12:16:40.798Z,3.97
2023-01-05T12:19:16.595Z,4.87
2023-01-05T12:22:02.871Z,4.27
2023-01-05T12:24:42.820Z,3.93
2023-01-05T12:27:28.948Z,3.67
2023-01-05T12:35:43.555Z,4.23
2023-01-05T12:38:17.259Z,3.13
2023-01-05T12:40:52.644Z,2.97
2023-01-05T12:43:35.590Z,3.43
2023-01-05T12:46:09.144Z,2.90
2023-01-05T12:48:42.142Z,3.53
2023-01-05T12:51:13.491Z,4.20
2023-01-05T12:53:40.791Z,4.67
2023-01-05T12:56:12.747Z,4.80
2023-01-05T12:58:45.776Z,4.17
2023-01-05T13:01:20.316Z,3.23
2023-01-05T13:03:50.084Z,4.07
2023-01-05T13:06:22.761Z,4.10
2023-01-05T13:09:16.260Z,4.97
2023-01-05T13:11:50.267Z,3.37
2023-01-05T13:14:19.527Z,2.83
2023-01-05T13:16:49.255Z,3.83
2023-01-05T13:19:21.267Z,3.50
2023-01-05T13:21:48.737Z,3.20
2023-01-05T13:24:22.909Z,3.60
2023-01-05T13:26:50.478Z,2.30
2023-01-05T13:29:23.842Z,4.23
2023-01-05T13:31:51.201Z,3.83
2023-01-05T13:34:38.034Z,3.73
2023-01-05T13:37:24.341Z,4.77
2023-01-05T13:40:09.028Z,4.20
2023-01-05T13:42:54.938Z,4.83
2023-01-05T13:45:40.996Z,4.33
2023-01-05T13:48:25.602Z,4.80
2023-01-05T13:51:19.981Z,4.17
2023-01-05T13:53:49.091Z,4.23
2023-01-05T13:56:22.784Z,4.37
2023-01-05T13:58:52.183Z,3.60
2023-01-05T14:01:35.206Z,2.97
2023-01-05T14:04:02.983Z,3.07
2023-01-05T14:06:32.145Z,3.87
2023-01-05T14:09:08.014Z,4.10
2023-01-05T14:11:36.760Z,3.83
2023-01-05T14:14:08.448Z,4.40
2023-01-05T14:16:36.108Z,5.50
2023-01-05T14:19:22.711Z,3.47
2023-01-05T14:21:50.047Z,3.83
2023-01-05T14:27:06.807Z,3.73
2023-01-05T14:29:46.776Z,3.10
2023-01-05T14:32:26.633Z,4.03
2023-01-05T14:37:24.328Z,3.83
2023-01-05T14:39:53.270Z,3.57
2023-01-05T14:42:26.368Z,3.57
2023-01-05T14:44:58.987Z,4.23
2023-01-05T14:47:41.862Z,4.37
2023-01-05T14:50:28.175Z,4.07
2023-01-05T14:52:55.509Z,5.90
2023-01-05T14:55:37.823Z,5.03
2023-01-05T14:58:35.525Z,4.60
2023-01-05T15:01:18.180Z,4.30
2023-01-05T15:04:03.880Z,4.77
2023-01-05T15:06:50.008Z,5.27
2023-01-05T15:09:29.283Z,5.80
2023-01-05T15:12:02.650Z,5.10
2023-01-05T15:14:42.395Z,6.93
2023-01-05T15:17:09.964Z,7.33
2023-01-05T15:19:55.892Z,6.60
2023-01-05T15:22:38.095Z,7.57
2023-01-05T15:25:15.368Z,8.60
2023-01-05T15:28:01.634Z,8.63
2023-01-05T15:30:36.571Z,9.40
2023-01-05T15:33:23.152Z,9.30
2023-01-05T15:36:02.617Z,8.10
2023-01-05T15:38:30.795Z,9.10
2023-01-05T15:41:09.767Z,9.70
2023-01-05T15:43:39.020Z,8.27
2023-01-05T15:46:07.085Z,9.57
2023-01-05T15:48:40.583Z,9.53
2023-01-05T15:51:08.274Z,8.33
2023-01-05T15:53:38.331Z,7.83
2023-01-05T15:56:06.834Z,7.47
2023-01-05T15:58:46.720Z,7.87
2023-01-05T16:01:15.398Z,9.13
2023-01-05T16:03:43.947Z,8.30
2023-01-05T16:06:22.038Z,9.93
2023-01-05T16:08:50.958Z,9.70
2023-01-05T16:11:47.790Z,8.67
2023-01-05T16:14:25.720Z,8.43
2023-01-05T16:16:54.871Z,9.30
2023-01-05T16:19:37.911Z,7.70
2023-01-05T16:22:09.595Z,8.90
2023-01-05T16:24:36.934Z,7.20
2023-01-05T16:27:05.315Z,7.53
2023-01-05T16:29:44.473Z,7.50
2023-01-05T16:32:30.645Z,6.80
2023-01-05T16:35:16.856Z,6.40
2023-01-05T16:37:44.207Z,6.83
2023-01-05T16:40:20.652Z,6.67
2023-01-05T16:42:50.506Z,8.20
2023-01-05T16:45:19.419Z,7.37
2023-01-05T16:47:47.322Z,9.37
2023-01-05T16:50:20.611Z,7.37
2023-01-05T16:52:54.143Z,9.33
2023-01-05T16:55:29.406Z,9.00
2023-01-05T16:57:57.444Z,10.77
2023-01-05T17:00:32.565Z,7.13
2023-01-05T17:03:23.730Z,8.80
2023-01-05T17:05:54.685Z,8.60
2023-01-05T17:08:23.240Z,11.10
2023-01-05T17:10:50.757Z,8.20
2023-01-05T17:13:20.922Z,6.77
2023-01-05T17:15:49.836Z,7.90
2023-01-05T17:18:24.471Z,7.43
2023-01-05T17:20:52.494Z,10.03
2023-01-05T17:23:24.736Z,7.77
2023-01-05T17:28:25.238Z,7.03
2023-01-05T17:30:53.226Z,8.27
2023-01-05T17:33:20.509Z,8.97
2023-01-05T17:38:20.437Z,9.27
2023-01-05T17:40:48.033Z,9.33
2023-01-05T17:43:15.276Z,7.97
2023-01-05T17:45:43.974Z,8.33
2023-01-05T17:50:43.839Z,8.93
2023-01-05T17:53:11.117Z,7.43
2023-01-05T17:55:38.550Z,9.20
2023-01-05T17:58:05.995Z,8.80
2023-01-05T18:00:34.952Z,9.77
2023-01-05T18:03:02.375Z,9.70
2023-01-05T18:05:29.560Z,9.17
2023-01-05T18:07:56.751Z,8.53
2023-01-05T18:10:27.038Z,10.43
2023-01-05T18:12:56.396Z,9.00
2023-01-05T18:15:23.591Z,7.97
2023-01-05T18:17:50.812Z,8.90
2023-01-05T18:20:20.062Z,10.07
2023-01-05T18:22:48.794Z,8.80
2023-01-05T18:25:16.203Z,12.60
2023-01-05T18:27:43.478Z,11.10
2023-01-05T18:30:11.655Z,10.33
2023-01-05T18:32:39.415Z,9.80
2023-01-05T18:35:09.902Z,10.43
2023-01-05T18:37:38.053Z,10.27
2023-01-05T18:40:05.639Z,9.90
2023-01-05T18:42:32.891Z,10.43
2023-01-05T18:45:04.991Z,9.00
2023-01-05T18:47:41.427Z,10.57
2023-01-05T18:50:09.520Z,10.23
2023-01-05T18:52:36.835Z,9.20
2023-01-05T18:55:04.188Z,9.63
2023-01-05T18:57:31.725Z,10.03
2023-01-05T18:59:59.321Z,10.70
2023-01-05T19:02:27.305Z,11.30
2023-01-05T19:04:55.794Z,10.10
2023-01-05T19:07:23.119Z,10.27
2023-01-05T19:09:50.431Z,9.60
2023-01-05T19:12:17.669Z,9.97
2023-01-05T19:14:44.998Z,11.68
2023-01-05T19:17:12.250Z,9.53
2023-01-05T19:19:39.487Z,12.73
2023-01-05T19:22:06.704Z,11.90
2023-01-05T19:24:35.303Z,11.07
2023-01-05T19:27:02.571Z,12.70
2023-01-05T19:29:29.843Z,10.60
2023-01-05T19:31:57.635Z,12.57
2023-01-05T19:34:24.871Z,11.13
2023-01-05T19:36:52.101Z,12.83
2023-01-05T19:39:21.773Z,13.33
2023-01-05T19:41:51.157Z,13.27
2023-01-05T19:44:19.712Z,11.87
2023-01-05T19:46:54.280Z,13.67
2023-01-05T19:49:22.919Z,13.47
2023-01-05T19:51:50.548Z,14.23
2023-01-05T19:54:18.258Z,12.37
2023-01-05T19:56:46.126Z,13.17
2023-01-05T19:59:17.701Z,13.60
2023-01-05T20:01:45.399Z,15.83
2023-01-05T20:04:12.741Z,13.33
2023-01-05T20:06:41.337Z,15.23
2023-01-05T20:09:10.622Z,17.83
2023-01-05T20:11:45.650Z,14.20
2023-01-05T20:14:12.941Z,14.70
2023-01-05T20:16:40.946Z,15.40
2023-01-05T20:19:08.745Z,13.07
2023-01-05T20:21:36.039Z,15.40
2023-01-05T20:24:06.491Z,14.77
2023-01-05T20:26:34.114Z,14.57
2023-01-05T20:29:01.476Z,16.47
2023-01-05T20:31:30.936Z,15.97
2023-01-05T20:33:59.402Z,15.20
2023-01-05T20:36:27.502Z,16.33
2023-01-05T20:38:55.137Z,14.73
2023-01-05T20:41:26.717Z,14.60
2023-01-05T20:43:54.385Z,14.17
2023-01-05T20:46:22.970Z,15.20
2023-01-05T20:48:51.141Z,15.00
2023-01-05T20:51:18.958Z,14.40
2023-01-05T20:53:46.248Z,12.53
2023-01-05T20:56:16.095Z,16.53
2023-01-05T20:58:44.406Z,13.77
2023-01-05T21:01:12.802Z,16.20
2023-01-05T21:03:40.753Z,14.57
2023-01-05T21:06:08.775Z,14.20
2023-01-05T21:08:36.009Z,11.63
2023-01-05T21:11:03.396Z,12.00
2023-01-05T21:13:32.973Z,13.87
2023-01-05T21:16:05.171Z,14.27
2023-01-05T21:18:33.565Z,12.40
2023-01-05T21:21:00.971Z,13.83
2023-01-05T21:23:28.197Z,12.97
2023-01-05T21:26:05.701Z,13.97
2023-01-05T21:28:36.465Z,15.10
2023-01-05T21:31:11.389Z,12.17
2023-01-05T21:33:40.233Z,12.37
2023-01-05T21:36:08.186Z,12.10
2023-01-05T21:39:02.088Z,12.33
2023-01-05T21:41:41.718Z,12.40
2023-01-05T21:44:10.682Z,14.63
2023-01-05T21:46:38.883Z,11.67
2023-01-05T21:49:07.059Z,11.87
2023-01-05T21:51:53.112Z,11.23
2023-01-05T21:54:39.634Z,14.53
2023-01-05T21:57:07.060Z,12.20
2023-01-05T21:59:34.598Z,11.67
2023-01-05T22:02:01.984Z,12.70
2023-01-05T22:04:29.372Z,13.90
2023-01-05T22:06:57.139Z,12.27
2023-01-05T22:09:24.416Z,12.93
2023-01-05T22:11:51.864Z,14.10
2023-01-05T22:14:19.283Z,13.53
2023-01-05T22:16:46.518Z,14.07
2023-01-05T22:19:13.825Z,14.57
2023-01-05T22:21:41.080Z,15.80
2023-01-05T22:24:09.634Z,15.30
2023-01-05T22:26:36.903Z,13.83
2023-01-05T22:29:04.182Z,15.67
2023-01-05T22:31:32.397Z,15.60
2023-01-05T22:34:00.620Z,16.13
2023-01-05T22:36:29.040Z,17.30
2023-01-05T22:38:57.060Z,16.17
2023-01-05T22:41:25.944Z,16.20
2023-01-05T22:43:53.361Z,17.47
2023-01-05T22:46:21.824Z,17.40
2023-01-05T22:48:50.029Z,17.50
2023-01-05T22:51:19.220Z,18.43
2023-01-05T22:53:46.975Z,20.90
2023-01-05T22:56:15.281Z,17.67
2023-01-05T22:58:42.706Z,17.33
2023-01-05T23:01:10.971Z,16.70
2023-01-05T23:03:38.346Z,16.70
2023-01-05T23:06:05.912Z,18.33
2023-01-05T23:08:34.843Z,17.30
2023-01-05T23:11:09.545Z,18.03
2023-01-05T23:13:37.145Z,18.03
2023-01-05T23:16:05.347Z,17.03
2023-01-05T23:18:33.022Z,16.73
2023-01-05T23:21:02.845Z,17.60
2023-01-05T23:23:30.644Z,15.57
2023-01-05T23:25:57.938Z,15.80
2023-01-05T23:28:26.246Z,15.03
2023-01-05T23:30:54.414Z,16.13
2023-01-05T23:33:23.703Z,14.67
2023-01-05T23:35:51.835Z,14.60
2023-01-05T23:38:19.301Z,15.37
2023-01-05T23:40:47.737Z,14.53
2023-01-05T23:43:16.004Z,13.97
2023-01-05T23:45:43.682Z,15.20
2023-01-05T23:48:11.188Z,13.90
2023-01-05T23:50:42.564Z,14.33
2023-01-05T23:53:10.245Z,12.63
2023-01-05T23:55:37.757Z,14.07
2023-01-05T23:58:05.148Z,13.77
